createdAt,value
2023-04-18T00:00:00.102Z,45
2023-04-18T00:05:00.174Z,37.5
2023-04-18T00:10:00.163Z,35
2023-04-18T00:15:00.129Z,17.5
2023-04-18T00:20:00.104Z,30
2023-04-18T00:25:00.132Z,35
2023-04-18T00:30:00.161Z,30
2023-04-18T00:35:00.133Z,30
2023-04-18T00:40:00.160Z,35
2023-04-18T00:45:00.161Z,25
2023-04-18T00:50:00.145Z,27.5
2023-04-18T00:55:00.129Z,20
2023-04-18T01:00:00.165Z,22.5
2023-04-18T01:05:00.128Z,30
2023-04-18T01:10:00.124Z,40
2023-04-18T01:15:00.112Z,42.5
2023-04-18T01:20:00.179Z,52.5
2023-04-18T01:25:00.194Z,52.5
2023-04-18T01:30:00.172Z,47.5
2023-04-18T01:35:00.156Z,47.5
2023-04-18T01:40:00.166Z,37.5
2023-04-18T01:45:00.098Z,37.5
2023-04-18T01:50:00.131Z,37.5
2023-04-18T01:55:00.142Z,25
2023-04-18T02:00:00.143Z,17.5
2023-04-18T02:05:00.134Z,22.5
2023-04-18T02:10:00.172Z,20
2023-04-18T02:15:00.134Z,17.5
2023-04-18T02:20:00.168Z,22.5
2023-04-18T02:25:00.132Z,7.5
2023-04-18T02:30:00.160Z,17.5
2023-04-18T02:35:00.115Z,25
2023-04-18T02:40:00.161Z,22.5
2023-04-18T02:45:00.108Z,25
2023-04-18T02:50:00.194Z,17.5
2023-04-18T02:55:00.170Z,25
2023-04-18T03:00:00.153Z,27.5
2023-04-18T03:05:00.172Z,25
2023-04-18T03:10:00.119Z,12.5
2023-04-18T03:15:00.122Z,12.5
2023-04-18T03:20:00.127Z,15
2023-04-18T03:25:00.199Z,10
2023-04-18T03:30:00.116Z,2.5
2023-04-18T03:35:00.136Z,10
2023-04-18T03:40:00.167Z,12.5
2023-04-18T03:45:00.104Z,17.5
2023-04-18T03:50:00.148Z,15
2023-04-18T03:55:00.164Z,27.5
2023-04-18T04:00:00.103Z,17.5
2023-04-18T04:05:00.186Z,17.5
2023-04-18T04:10:00.126Z,25
2023-04-18T04:15:00.110Z,10
2023-04-18T04:20:00.172Z,12.5
2023-04-18T04:25:00.182Z,17.5
2023-04-18T04:30:00.282Z,10
2023-04-18T04:35:00.155Z,17.5
2023-04-18T04:40:00.121Z,12.5
2023-04-18T04:45:00.229Z,15
2023-04-18T04:50:00.130Z,20
2023-04-18T04:55:00.131Z,12.5
2023-04-18T05:00:00.118Z,17.5
2023-04-18T05:05:00.140Z,12.5
2023-04-18T05:10:00.108Z,32.5
2023-04-18T05:15:00.146Z,17.5
2023-04-18T05:20:00.135Z,22.5
2023-04-18T05:25:00.129Z,20
2023-04-18T05:30:00.180Z,15
2023-04-18T05:35:00.126Z,20
2023-04-18T05:40:01.148Z,30
2023-04-18T05:45:00.141Z,35
2023-04-18T05:50:00.141Z,20
2023-04-18T05:55:00.120Z,45
2023-04-18T06:00:00.145Z,40
2023-04-18T06:05:00.458Z,55
2023-04-18T06:10:00.171Z,47.5
2023-04-18T06:15:00.150Z,60
2023-04-18T06:20:00.156Z,47.5
2023-04-18T06:25:00.145Z,60
2023-04-18T06:30:00.180Z,60
2023-04-18T06:35:00.126Z,60
2023-04-18T06:40:00.152Z,52.5
2023-04-18T06:45:00.154Z,57.5
2023-04-18T06:50:00.180Z,65
2023-04-18T06:55:00.159Z,70
2023-04-18T07:00:00.133Z,55
2023-04-18T07:05:00.160Z,47.5
2023-04-18T07:10:00.132Z,47.5
2023-04-18T07:15:00.126Z,40
2023-04-18T07:20:00.143Z,52.5
2023-04-18T07:25:00.153Z,50
2023-04-18T07:30:00.114Z,55
2023-04-18T07:35:00.114Z,52.5
2023-04-18T07:40:00.133Z,65
2023-04-18T07:45:00.134Z,60
2023-04-18T07:50:00.180Z,65
2023-04-18T07:55:00.116Z,65
2023-04-18T08:00:00.183Z,55
2023-04-18T08:05:00.349Z,60
2023-04-18T08:10:00.158Z,60
2023-04-18T08:15:00.135Z,57.5
2023-04-18T08:20:00.145Z,62.5
2023-04-18T08:25:05.032Z,50
2023-04-18T08:30:00.186Z,57.5
2023-04-18T08:35:00.222Z,60
2023-04-18T08:40:00.154Z,60
2023-04-18T08:45:00.150Z,55
2023-04-18T08:50:00.180Z,62.5
2023-04-18T08:55:00.125Z,55
2023-04-18T09:00:00.150Z,50
2023-04-18T09:05:00.111Z,60
2023-04-18T09:10:00.176Z,60
2023-04-18T09:15:00.103Z,75
2023-04-18T09:20:00.129Z,70
2023-04-18T09:25:00.134Z,65
2023-04-18T09:30:00.158Z,52.5
2023-04-18T09:35:01.404Z,65
2023-04-18T09:40:00.133Z,65
2023-04-18T09:45:00.167Z,60
2023-04-18T09:50:00.136Z,57.5
2023-04-18T09:55:00.165Z,57.5
2023-04-18T10:00:00.168Z,60
2023-04-18T10:05:00.311Z,55
2023-04-18T10:10:00.154Z,57.5
2023-04-18T10:15:00.115Z,62.5
2023-04-18T10:20:00.149Z,60
2023-04-18T10:25:00.131Z,60
2023-04-18T10:30:00.168Z,52.5
2023-04-18T10:35:00.120Z,70
2023-04-18T10:40:00.212Z,67.5
2023-04-18T10:45:00.179Z,60
2023-04-18T10:50:00.120Z,55
2023-04-18T10:55:00.160Z,55
2023-04-18T11:00:00.187Z,65
2023-04-18T11:05:00.148Z,67.5
2023-04-18T11:10:00.187Z,70
2023-04-18T11:15:00.179Z,65
2023-04-18T11:20:00.186Z,60
2023-04-18T11:25:00.162Z,62.5
2023-04-18T11:30:00.174Z,70
2023-04-18T11:35:00.146Z,75
2023-04-18T11:40:00.146Z,82.5
2023-04-18T11:45:00.146Z,60
2023-04-18T11:50:00.122Z,65
2023-04-18T11:55:00.149Z,72.5
2023-04-18T12:00:00.161Z,65
2023-04-18T12:05:00.388Z,62.5
2023-04-18T12:10:00.118Z,70
2023-04-18T12:15:00.147Z,70
2023-04-18T12:20:00.166Z,62.5
2023-04-18T12:25:00.113Z,57.5
2023-04-18T12:30:00.149Z,62.5
2023-04-18T12:35:00.114Z,65
2023-04-18T12:40:00.204Z,65
2023-04-18T12:45:00.180Z,72.5
2023-04-18T12:50:00.155Z,65
2023-04-18T12:55:00.130Z,65
2023-04-18T13:00:00.151Z,70
2023-04-18T13:05:00.167Z,62.5
2023-04-18T13:10:00.133Z,65
2023-04-18T13:15:00.138Z,75
2023-04-18T13:20:05.105Z,67.5
2023-04-18T13:25:00.155Z,70
2023-04-18T13:30:00.201Z,65
2023-04-18T13:35:00.153Z,57.5
2023-04-18T13:40:00.130Z,57.5
2023-04-18T13:45:00.137Z,67.5
2023-04-18T13:50:00.164Z,65
2023-04-18T13:55:00.141Z,52.5
2023-04-18T14:00:00.159Z,67.5
2023-04-18T14:05:00.288Z,65
2023-04-18T14:10:00.117Z,60
2023-04-18T14:15:00.109Z,67.5
2023-04-18T14:20:00.148Z,65
2023-04-18T14:25:00.122Z,57.5
2023-04-18T14:30:00.149Z,57.5
2023-04-18T14:35:00.163Z,57.5
2023-04-18T14:40:00.140Z,62.5
2023-04-18T14:45:00.116Z,72.5
2023-04-18T14:50:00.138Z,70
2023-04-18T14:55:00.160Z,75
2023-04-18T15:00:00.161Z,60
2023-04-18T15:05:00.306Z,72.5
2023-04-18T15:10:00.116Z,75
2023-04-18T15:15:00.128Z,67.5
2023-04-18T15:20:00.166Z,62.5
2023-04-18T15:25:00.134Z,52.5
2023-04-18T15:30:00.165Z,65
2023-04-18T15:35:00.156Z,60
2023-04-18T15:40:00.161Z,55
2023-04-18T15:45:00.110Z,55
2023-04-18T15:50:00.116Z,62.5
2023-04-18T15:55:00.155Z,67.5
2023-04-18T16:00:00.148Z,55
2023-04-18T16:05:00.169Z,55
2023-04-18T16:10:00.144Z,67.5
2023-04-18T16:15:00.151Z,70
2023-04-18T16:20:00.166Z,62.5
2023-04-18T16:25:00.211Z,67.5
2023-04-18T16:30:00.250Z,60
2023-04-18T16:35:00.146Z,55
2023-04-18T16:40:00.167Z,60
2023-04-18T16:45:00.141Z,55
2023-04-18T16:50:00.289Z,60
2023-04-18T16:55:00.117Z,55
2023-04-18T17:00:00.159Z,55
2023-04-18T17:05:00.188Z,60
2023-04-18T17:10:00.127Z,55
2023-04-18T17:15:00.152Z,57.5
2023-04-18T17:20:00.110Z,65
2023-04-18T17:25:00.116Z,55
2023-04-18T17:30:00.179Z,67.5
2023-04-18T17:35:00.098Z,67.5
2023-04-18T17:40:00.162Z,70
2023-04-18T17:45:00.144Z,60
2023-04-18T17:50:00.117Z,62.5
2023-04-18T17:55:00.125Z,52.5
2023-04-18T18:00:00.122Z,60
2023-04-18T18:40:00.137Z,65
2023-04-18T18:45:00.142Z,57.5
2023-04-18T18:50:00.114Z,67.5
2023-04-18T18:55:00.136Z,57.5
2023-04-18T19:00:00.156Z,65
2023-04-18T19:05:00.315Z,55
2023-04-18T19:10:00.147Z,65
2023-04-18T19:15:00.157Z,70
2023-04-18T19:20:00.118Z,75
2023-04-18T19:25:00.111Z,65
2023-04-18T19:30:00.141Z,60
2023-04-18T19:35:00.268Z,62.5
2023-04-18T19:40:00.197Z,67.5
2023-04-18T19:45:00.159Z,65
2023-04-18T19:50:00.156Z,60
2023-04-18T19:55:00.140Z,50
2023-04-18T20:00:00.118Z,57.5
2023-04-18T20:05:00.361Z,60
2023-04-18T20:10:00.110Z,55
2023-04-18T20:15:00.148Z,65
2023-04-18T20:20:00.111Z,60
2023-04-18T20:25:00.101Z,57.5
2023-04-18T20:30:00.162Z,70
2023-04-18T20:35:00.132Z,62.5
2023-04-18T20:40:00.115Z,52.5
2023-04-18T20:45:00.130Z,65
2023-04-18T20:50:00.176Z,57.5
2023-04-18T20:55:00.104Z,55
2023-04-18T21:00:00.190Z,62.5
2023-04-18T21:05:00.112Z,55
2023-04-18T21:10:00.117Z,60
2023-04-18T21:15:00.164Z,55
2023-04-18T21:20:00.172Z,57.5
2023-04-18T21:25:00.150Z,50
2023-04-18T21:30:00.931Z,60
2023-04-18T21:35:00.137Z,55
2023-04-18T21:40:00.171Z,60
2023-04-18T21:45:00.131Z,57.5
2023-04-18T21:50:00.129Z,52.5
2023-04-18T21:55:00.133Z,60
2023-04-18T22:00:00.177Z,57.5
2023-04-18T22:05:00.149Z,57.5
2023-04-18T22:10:00.202Z,52.5
2023-04-18T22:15:00.154Z,57.5
2023-04-18T22:20:00.173Z,55
2023-04-18T22:25:00.129Z,52.5
2023-04-18T22:30:00.137Z,32.5
2023-04-18T22:35:00.165Z,37.5
2023-04-18T22:40:00.140Z,25
2023-04-18T22:45:00.148Z,45
2023-04-18T22:50:00.125Z,37.5
2023-04-18T22:55:00.131Z,45
2023-04-18T23:00:00.117Z,55
2023-04-18T23:05:00.140Z,55
2023-04-18T23:10:00.181Z,35
2023-04-18T23:15:00.101Z,37.5
2023-04-18T23:20:00.148Z,32.5
2023-04-18T23:25:00.127Z,32.5
2023-04-18T23:30:00.133Z,32.5
2023-04-18T23:35:00.120Z,42.5
2023-04-18T23:40:00.172Z,35
2023-04-18T23:45:00.104Z,22.5
2023-04-18T23:50:00.140Z,20
2023-04-18T23:55:00.156Z,17.5
